Terminal Aerodrome Forecast
Issued by NWS Atlanta, GA

Home | Current Version | Previous Version | Text Only | Print | Product List | Glossary On
Versions: 1 2 3 4 5 6 7 8 9 10 11 12 13 14 15 16 17 18 19 20 21 22 23 24 25 26 27 28 29 30 31 32 33 34 35 36 37 38
000
FTUS42 KFFC 280330 AAB
TAFATL
TAF AMD
KATL 280330Z 2804/2906 01004KT P6SM SCT250
     FM281400 34005KT P6SM FEW040
     FM281800 32006KT P6SM SCT050
     FM290300 34004KT P6SM SCT250=

USA.gov is the U.S. government's official web portal to all federal, state and local government web resources and services.